Time;durP1;ratioP1;P1;durP2;ratioP2;P2;SDS_P1;SDS_P2;PMS_P1;PMS_P2;Temp;Humidity;BMP_temperature;BMP_pressure;BME280_temperature;BME280_humidity;BME280_pressure;Samples;Min_cycle;Max_cycle;Signal;HPM_P1;HPM_P2
2023/05/07 00:00:09;;;;;;;8.55;5.32;;;;;;;-144.85;100.00;61331.59;5061753;28;31513;-82
2023/05/07 00:02:37;;;;;;;5.93;5.25;;;;;;;-144.85;100.00;61331.59;5078433;28;33054;-82
2023/05/07 00:05:06;;;;;;;7.20;5.55;;;;;;;-144.85;100.00;61331.59;5045778;28;33864;-82
2023/05/07 00:07:33;;;;;;;6.63;5.18;;;;;;;-144.85;100.00;61331.59;5048308;28;33560;-81
2023/05/07 00:10:01;;;;;;;6.85;5.50;;;;;;;-144.85;100.00;61331.59;5065519;28;31384;-82
2023/05/07 00:12:31;;;;;;;7.88;5.70;;;;;;;-144.85;100.00;61331.59;5073289;28;33994;-83
2023/05/07 00:15:07;;;;;;;8.13;5.53;;;;;;;-144.85;100.00;61331.59;5046460;28;31153;-82
2023/05/07 00:17:35;;;;;;;6.78;5.40;;;;;;;-144.85;100.00;61331.59;5082480;28;32762;-82
2023/05/07 00:20:04;;;;;;;9.23;6.28;;;;;;;-144.85;100.00;61331.59;5064257;28;32304;-81
2023/05/07 00:22:32;;;;;;;8.35;5.90;;;;;;;-144.85;100.00;61331.59;5061807;28;31806;-84
2023/05/07 00:25:00;;;;;;;11.93;6.05;;;;;;;-144.85;100.00;61331.59;5049730;28;31152;-81
2023/05/07 00:27:27;;;;;;;9.00;5.78;;;;;;;-144.85;100.00;61331.59;5082094;28;31853;-84
2023/05/07 00:29:54;;;;;;;9.48;5.57;;;;;;;-144.85;100.00;61331.59;5065126;28;31874;-83
2023/05/07 00:32:21;;;;;;;6.93;5.85;;;;;;;-144.85;100.00;61331.59;5063181;28;31824;-83
2023/05/07 00:34:50;;;;;;;7.50;5.32;;;;;;;-144.85;100.00;61331.59;5064135;28;32449;-81
2023/05/07 00:37:17;;;;;;;8.35;5.80;;;;;;;-144.85;100.00;61331.59;5063017;28;32556;-81
2023/05/07 00:39:44;;;;;;;9.15;6.90;;;;;;;-144.85;100.00;61331.59;5056838;28;30614;-83
2023/05/07 00:42:12;;;;;;;11.15;6.63;;;;;;;-144.85;100.00;61331.59;5063550;28;32747;-83
2023/05/07 00:44:39;;;;;;;9.77;5.80;;;;;;;-144.85;100.00;61331.59;5056394;28;32413;-81
2023/05/07 00:47:07;;;;;;;8.18;6.53;;;;;;;-144.85;100.00;61331.59;5063392;28;32141;-83
2023/05/07 00:49:45;;;;;;;7.82;6.07;;;;;;;-144.85;100.00;61331.59;5064031;28;32342;-83
2023/05/07 00:52:15;;;;;;;8.35;5.93;;;;;;;-144.85;100.00;61331.59;5063229;28;32862;-83
2023/05/07 00:54:42;;;;;;;9.82;6.95;;;;;;;-144.85;100.00;61331.59;5064114;28;32212;-83
2023/05/07 00:57:13;;;;;;;8.98;7.00;;;;;;;-144.85;100.00;61331.59;5064003;28;30780;-83
2023/05/07 00:59:41;;;;;;;9.80;7.55;;;;;;;-144.85;100.00;61331.59;5064668;28;31251;-83
2023/05/07 01:02:08;;;;;;;10.02;7.90;;;;;;;-144.85;100.00;61331.59;5056709;28;33501;-83
2023/05/07 01:04:36;;;;;;;9.05;7.53;;;;;;;-144.85;100.00;61331.59;5082260;28;32094;-82
2023/05/07 01:07:05;;;;;;;11.18;7.78;;;;;;;-144.85;100.00;61331.59;5082000;28;31980;-82
2023/05/07 01:09:35;;;;;;;11.60;8.85;;;;;;;-144.85;100.00;61331.59;5067357;28;32672;-83
2023/05/07 01:12:03;;;;;;;13.70;8.82;;;;;;;-144.85;100.00;61331.59;5079965;28;33157;-83
2023/05/07 01:14:30;;;;;;;12.65;8.60;;;;;;;-144.85;100.00;61331.59;5074517;28;32827;-83
2023/05/07 01:16:58;;;;;;;14.40;8.95;;;;;;;-144.85;100.00;61331.59;5070311;28;30720;-84
2023/05/07 01:19:26;;;;;;;12.75;8.45;;;;;;;-144.85;100.00;61331.59;5071785;28;30834;-83
2023/05/07 01:22:00;;;;;;;12.88;8.32;;;;;;;-144.85;100.00;61331.59;5076266;28;32616;-83
2023/05/07 01:24:28;;;;;;;11.95;8.95;;;;;;;-144.85;100.00;61331.59;5065161;28;32682;-83
2023/05/07 01:26:56;;;;;;;11.98;9.15;;;;;;;-144.85;100.00;61331.59;5076080;28;32040;-83
2023/05/07 01:29:24;;;;;;;12.73;10.15;;;;;;;-144.85;100.00;61331.59;5075965;28;30737;-83
2023/05/07 01:31:52;;;;;;;15.98;11.13;;;;;;;-144.85;100.00;61331.59;5068849;28;33218;-83
2023/05/07 01:34:21;;;;;;;15.00;10.60;;;;;;;-144.85;100.00;61331.59;5073563;28;30579;-83
2023/05/07 01:36:49;;;;;;;14.60;10.00;;;;;;;-144.85;100.00;61331.59;5070144;28;32900;-82
2023/05/07 01:39:17;;;;;;;12.02;9.18;;;;;;;-144.85;100.00;61331.59;5057776;28;30258;-83
2023/05/07 01:41:44;;;;;;;14.13;9.90;;;;;;;-144.85;100.00;61331.59;5074272;28;33053;-83
2023/05/07 01:44:13;;;;;;;12.70;9.52;;;;;;;-144.85;100.00;61331.59;5074698;28;31511;-84
2023/05/07 01:46:40;;;;;;;11.15;8.90;;;;;;;-144.85;100.00;61331.59;5058964;28;32443;-83
2023/05/07 01:49:08;;;;;;;14.82;9.25;;;;;;;-144.85;100.00;61331.59;5072385;28;30895;-83
2023/05/07 01:51:36;;;;;;;11.13;9.27;;;;;;;-144.85;100.00;61331.59;5048371;28;34249;-82
2023/05/07 01:54:03;;;;;;;11.82;9.55;;;;;;;-144.85;100.00;61331.59;5066044;28;32082;-82
2023/05/07 01:56:30;;;;;;;12.63;9.57;;;;;;;-144.85;100.00;61331.59;5079274;28;31044;-82
2023/05/07 01:58:58;;;;;;;12.43;9.60;;;;;;;-144.85;100.00;61331.59;5047651;28;30591;-83
2023/05/07 02:01:25;;;;;;;15.75;9.82;;;;;;;-144.85;100.00;61331.59;5048612;28;31318;-83
2023/05/07 02:03:53;;;;;;;15.15;9.77;;;;;;;-144.85;100.00;61331.59;5064119;28;31466;-82
2023/05/07 02:06:25;;;;;;;13.30;8.98;;;;;;;-144.85;100.00;61331.59;5063202;28;30785;-83
2023/05/07 02:08:56;;;;;;;13.07;10.15;;;;;;;-144.85;100.00;61331.59;5063702;28;31961;-83
2023/05/07 02:11:25;;;;;;;11.70;9.88;;;;;;;-144.85;100.00;61331.59;5066549;28;32770;-83
2023/05/07 02:13:52;;;;;;;14.40;11.05;;;;;;;-144.85;100.00;61331.59;5075347;28;32445;-83
2023/05/07 02:16:21;;;;;;;16.52;10.88;;;;;;;-144.85;100.00;61331.59;5064689;28;31705;-83
2023/05/07 02:18:48;;;;;;;12.02;10.43;;;;;;;-144.85;100.00;61331.59;5063822;28;32475;-82
2023/05/07 02:21:15;;;;;;;16.33;10.07;;;;;;;-144.85;100.00;61331.59;5050562;28;33753;-83
2023/05/07 02:23:42;;;;;;;14.77;11.50;;;;;;;-144.85;100.00;61331.59;5065100;28;32226;-83
2023/05/07 02:26:10;;;;;;;13.13;11.50;;;;;;;-144.85;100.00;61331.59;5063162;28;32483;-81
2023/05/07 02:28:38;;;;;;;15.90;11.63;;;;;;;-144.85;100.00;61331.59;5063302;28;32288;-81
2023/05/07 02:31:06;;;;;;;16.50;11.25;;;;;;;-144.85;100.00;61331.59;5047989;28;32806;-82
2023/05/07 02:33:37;;;;;;;19.08;12.05;;;;;;;-144.85;100.00;61331.59;5065023;28;31922;-83
2023/05/07 02:36:08;;;;;;;22.20;13.13;;;;;;;-144.85;100.00;61331.59;5060705;28;33415;-83
2023/05/07 02:38:40;;;;;;;16.10;11.75;;;;;;;-144.85;100.00;61331.59;5053601;28;32214;-84
2023/05/07 02:41:08;;;;;;;14.77;11.57;;;;;;;-144.85;100.00;61331.59;5076884;28;33125;-83
2023/05/07 02:43:35;;;;;;;16.35;12.20;;;;;;;-144.85;100.00;61331.59;5060591;28;32442;-82
2023/05/07 02:46:06;;;;;;;15.68;12.90;;;;;;;-144.85;100.00;61331.59;5061582;28;32133;-83
2023/05/07 02:48:37;;;;;;;17.40;12.98;;;;;;;-144.85;100.00;61331.59;5047510;28;31697;-84
2023/05/07 02:51:05;;;;;;;17.73;14.07;;;;;;;-144.85;100.00;61331.59;5047004;28;34298;-84
2023/05/07 02:53:34;;;;;;;15.55;12.55;;;;;;;-144.85;100.00;61331.59;5039873;28;30814;-80
2023/05/07 02:56:02;;;;;;;20.90;13.68;;;;;;;-144.85;100.00;61331.59;5047484;28;30691;-82
2023/05/07 02:58:30;;;;;;;18.35;12.90;;;;;;;-144.85;100.00;61331.59;5058241;28;32450;-83
2023/05/07 03:00:58;;;;;;;19.42;13.55;;;;;;;-144.85;100.00;61331.59;5044432;28;33118;-84
2023/05/07 03:03:34;;;;;;;17.92;13.15;;;;;;;-144.85;100.00;61331.59;5048318;28;33284;-84
2023/05/07 03:06:02;;;;;;;18.25;13.50;;;;;;;-144.85;100.00;61331.59;5060762;28;32628;-83
2023/05/07 03:08:29;;;;;;;19.75;13.13;;;;;;;-144.85;100.00;61331.59;5041166;28;32197;-82
2023/05/07 03:10:56;;;;;;;16.60;13.35;;;;;;;-144.85;100.00;61331.59;5060990;28;32236;-85
2023/05/07 03:13:23;;;;;;;16.13;13.20;;;;;;;-144.85;100.00;61331.59;5060818;28;33003;-83
2023/05/07 03:15:52;;;;;;;17.08;13.70;;;;;;;-144.85;100.00;61331.59;5078012;28;32568;-84
2023/05/07 03:18:19;;;;;;;17.48;14.23;;;;;;;-144.85;100.00;61331.59;5043529;28;32116;-84
2023/05/07 03:20:48;;;;;;;19.52;15.32;;;;;;;-144.85;100.00;61331.59;5061328;28;33128;-84
2023/05/07 03:23:17;;;;;;;21.05;14.82;;;;;;;-144.85;100.00;61331.59;5063876;28;33157;-84
2023/05/07 03:25:44;;;;;;;19.65;15.02;;;;;;;-144.85;100.00;61331.59;5082391;28;32229;-83
2023/05/07 03:28:12;;;;;;;19.00;14.68;;;;;;;-144.85;100.00;61331.59;5063952;28;31680;-83
2023/05/07 03:30:45;;;;;;;19.13;15.48;;;;;;;-144.85;100.00;61331.59;5062558;28;34320;-83
2023/05/07 03:33:12;;;;;;;18.00;14.60;;;;;;;-144.85;100.00;61331.59;5078577;28;32428;-83
2023/05/07 03:35:40;;;;;;;18.58;15.02;;;;;;;-144.85;100.00;61331.59;5064824;28;33797;-84
2023/05/07 03:38:07;;;;;;;22.83;14.38;;;;;;;-144.85;100.00;61331.59;5063889;28;31531;-83
2023/05/07 03:40:36;;;;;;;18.77;15.50;;;;;;;-144.85;100.00;61331.59;5047822;28;33266;-83
2023/05/07 03:43:05;;;;;;;19.45;14.75;;;;;;;-144.85;100.00;61331.59;5063902;28;32233;-83
2023/05/07 03:45:35;;;;;;;19.05;15.73;;;;;;;-144.85;100.00;61331.59;5064579;28;31849;-85
2023/05/07 03:48:24;;;;;;;18.02;15.10;;;;;;;-144.85;100.00;61331.59;5064081;28;30802;-83
2023/05/07 03:50:56;;;;;;;19.13;15.77;;;;;;;-144.85;100.00;61331.59;5062924;28;31378;-83
2023/05/07 03:53:24;;;;;;;19.83;16.25;;;;;;;-144.85;100.00;61331.59;5066009;28;34021;-83
2023/05/07 03:55:52;;;;;;;21.27;16.42;;;;;;;-144.85;100.00;61331.59;5065122;28;29192;-84
2023/05/07 03:58:20;;;;;;;22.45;16.58;;;;;;;-144.85;100.00;61331.59;5053438;28;32363;-84
2023/05/07 04:00:48;;;;;;;19.30;16.30;;;;;;;-144.85;100.00;61331.59;5052552;28;33186;-85
2023/05/07 04:03:27;;;;;;;20.75;16.65;;;;;;;-144.85;100.00;61331.59;5081885;28;33128;-83
2023/05/07 04:05:58;;;;;;;19.77;16.88;;;;;;;-144.85;100.00;61331.59;5062725;28;33655;-84
2023/05/07 04:08:25;;;;;;;22.63;17.50;;;;;;;-144.85;100.00;61331.59;5053439;28;31845;-83
2023/05/07 04:10:55;;;;;;;23.30;18.15;;;;;;;-144.85;100.00;61331.59;5059187;28;33200;-83
2023/05/07 04:13:24;;;;;;;23.08;17.20;;;;;;;-144.85;100.00;61331.59;5043393;28;32189;-83
2023/05/07 04:15:52;;;;;;;23.20;17.02;;;;;;;-144.85;100.00;61331.59;5075681;28;32251;-83
2023/05/07 04:18:21;;;;;;;19.60;16.00;;;;;;;-144.85;100.00;61331.59;5044051;28;30446;-83
2023/05/07 04:20:49;;;;;;;22.45;17.88;;;;;;;-144.85;100.00;61331.59;5055583;28;33240;-84
2023/05/07 04:23:16;;;;;;;22.33;17.30;;;;;;;-144.85;100.00;61331.59;5047298;28;31362;-83
2023/05/07 04:25:45;;;;;;;21.95;17.67;;;;;;;-144.85;100.00;61331.59;5063478;28;30755;-83
2023/05/07 04:28:23;;;;;;;21.75;17.00;;;;;;;-144.85;100.00;61331.59;5045963;28;32042;-83
2023/05/07 04:30:51;;;;;;;22.48;17.45;;;;;;;-144.85;100.00;61331.59;5063360;28;32933;-83
2023/05/07 04:33:20;;;;;;;21.20;17.27;;;;;;;-144.85;100.00;61331.59;5047003;28;32830;-84
2023/05/07 04:35:48;;;;;;;20.85;17.85;;;;;;;-144.85;100.00;61331.59;5047731;28;31649;-83
2023/05/07 04:38:16;;;;;;;22.70;17.70;;;;;;;-144.85;100.00;61331.59;5047460;28;31493;-84
2023/05/07 04:40:44;;;;;;;23.75;18.02;;;;;;;-144.85;100.00;61331.59;5047209;28;33177;-84
2023/05/07 04:43:15;;;;;;;25.73;17.50;;;;;;;-144.85;100.00;61331.59;5063131;28;32374;-84
2023/05/07 04:45:50;;;;;;;22.20;17.85;;;;;;;-144.85;100.00;61331.59;5064913;28;32691;-84
2023/05/07 04:48:20;;;;;;;22.95;17.98;;;;;;;-144.85;100.00;61331.59;5068072;28;32219;-85
2023/05/07 04:50:50;;;;;;;22.75;18.20;;;;;;;-144.85;100.00;61331.59;5049360;28;33424;-85
2023/05/07 04:53:18;;;;;;;24.85;18.27;;;;;;;-144.85;100.00;61331.59;5060918;28;31084;-85
2023/05/07 04:55:47;;;;;;;22.98;18.50;;;;;;;-144.85;100.00;61331.59;5060466;28;31261;-85
2023/05/07 04:58:15;;;;;;;23.17;18.20;;;;;;;-144.85;100.00;61331.59;5073214;28;30612;-84
2023/05/07 05:00:45;;;;;;;23.42;18.45;;;;;;;-144.85;100.00;61331.59;5063545;28;33165;-84
2023/05/07 05:03:12;;;;;;;23.33;17.70;;;;;;;-144.85;100.00;61331.59;5067570;28;33252;-84
2023/05/07 05:05:39;;;;;;;23.38;18.60;;;;;;;-144.85;100.00;61331.59;5063697;28;32182;-84
2023/05/07 05:08:07;;;;;;;22.48;18.17;;;;;;;-144.85;100.00;61331.59;5049990;28;30356;-84
2023/05/07 05:10:37;;;;;;;23.35;18.33;;;;;;;-144.85;100.00;61331.59;5082499;28;32928;-85
2023/05/07 05:13:05;;;;;;;24.13;18.50;;;;;;;-144.85;100.00;61331.59;5067418;28;32753;-84
2023/05/07 05:15:33;;;;;;;23.75;18.70;;;;;;;-144.85;100.00;61331.59;5050921;28;31545;-83
2023/05/07 05:18:01;;;;;;;24.50;18.92;;;;;;;-144.85;100.00;61331.59;5067540;28;32296;-84
2023/05/07 05:20:30;;;;;;;23.23;19.52;;;;;;;-144.85;100.00;61331.59;5051157;28;31200;-84
2023/05/07 05:22:57;;;;;;;23.25;18.45;;;;;;;-144.85;100.00;61331.59;5068121;28;32577;-84
2023/05/07 05:25:24;;;;;;;27.48;20.08;;;;;;;-144.85;100.00;61331.59;5067844;28;31160;-83
2023/05/07 05:27:52;;;;;;;23.92;18.35;;;;;;;-144.85;100.00;61331.59;5050605;28;32368;-84
2023/05/07 05:30:19;;;;;;;23.25;19.92;;;;;;;-144.85;100.00;61331.59;5055551;28;33100;-85
2023/05/07 05:32:48;;;;;;;24.75;18.40;;;;;;;-144.85;100.00;61331.59;5074049;28;31308;-85
2023/05/07 05:35:15;;;;;;;26.67;19.67;;;;;;;-144.85;100.00;61331.59;5077100;28;31791;-86
2023/05/07 05:37:44;;;;;;;24.83;19.23;;;;;;;-144.85;100.00;61331.59;5073352;28;30672;-85
2023/05/07 05:40:12;;;;;;;24.77;19.30;;;;;;;-144.85;100.00;61331.59;5074421;28;31350;-85
2023/05/07 05:42:39;;;;;;;23.13;18.55;;;;;;;-144.85;100.00;61331.59;5057636;28;33370;-87
2023/05/07 05:45:08;;;;;;;23.25;19.15;;;;;;;-144.85;100.00;61331.59;5066466;28;31495;-86
2023/05/07 05:47:37;;;;;;;25.73;18.33;;;;;;;-144.85;100.00;61331.59;5089223;28;32267;-85
2023/05/07 05:50:06;;;;;;;24.02;19.52;;;;;;;-144.85;100.00;61331.59;5069791;28;32781;-85
2023/05/07 05:52:33;;;;;;;24.88;18.85;;;;;;;-144.85;100.00;61331.59;5069119;28;32088;-85
2023/05/07 05:55:01;;;;;;;24.92;18.73;;;;;;;-144.85;100.00;61331.59;5065146;28;30824;-85
2023/05/07 05:57:28;;;;;;;23.58;18.40;;;;;;;-144.85;100.00;61331.59;5050075;28;30575;-85
2023/05/07 05:59:56;;;;;;;23.17;19.08;;;;;;;-144.85;100.00;61331.59;5047467;28;32816;-85
2023/05/07 06:02:24;;;;;;;23.92;18.17;;;;;;;-144.85;100.00;61331.59;5069537;28;31955;-85
2023/05/07 06:04:52;;;;;;;23.60;19.08;;;;;;;-144.85;100.00;61331.59;5054953;28;31963;-86
2023/05/07 06:07:23;;;;;;;25.10;19.30;;;;;;;-144.85;100.00;61331.59;5051005;28;32350;-85
2023/05/07 06:09:50;;;;;;;20.92;18.35;;;;;;;-144.85;100.00;61331.59;5084224;28;32936;-81
2023/05/07 06:12:17;;;;;;;27.77;19.70;;;;;;;-144.85;100.00;61331.59;5059009;28;32467;-85
2023/05/07 06:14:47;;;;;;;22.98;19.40;;;;;;;-144.85;100.00;61331.59;5065042;28;31488;-85
2023/05/07 06:17:15;;;;;;;22.13;18.10;;;;;;;-144.85;100.00;61331.59;5063540;28;30550;-83
2023/05/07 06:19:46;;;;;;;24.33;19.13;;;;;;;-144.85;100.00;61331.59;5064453;28;33152;-83
2023/05/07 06:22:16;;;;;;;22.92;19.02;;;;;;;-144.85;100.00;61331.59;5049106;28;32524;-84
2023/05/07 06:24:43;;;;;;;25.98;19.38;;;;;;;-144.85;100.00;61331.59;5053464;28;32219;-83
2023/05/07 06:27:10;;;;;;;22.75;18.23;;;;;;;-144.85;100.00;61331.59;5070066;28;31831;-85
2023/05/07 06:29:38;;;;;;;26.52;19.25;;;;;;;-144.85;100.00;61331.59;5076042;28;31522;-85
2023/05/07 06:32:13;;;;;;;23.75;18.85;;;;;;;-144.85;100.00;61331.59;5077376;28;31359;-84
2023/05/07 06:34:42;;;;;;;23.02;18.83;;;;;;;-144.85;100.00;61331.59;5071881;28;30914;-82
2023/05/07 06:37:10;;;;;;;21.95;17.48;;;;;;;-144.85;100.00;61331.59;5076003;28;31924;-83
2023/05/07 06:39:52;;;;;;;22.88;18.52;;;;;;;-144.85;100.00;61331.59;5073199;28;33055;-85
2023/05/07 06:42:19;;;;;;;22.92;18.08;;;;;;;-144.85;100.00;61331.59;5080460;28;31611;-86
2023/05/07 06:44:48;;;;;;;21.38;17.83;;;;;;;-144.85;100.00;61331.59;5080442;28;31082;-85
2023/05/07 06:47:17;;;;;;;21.73;17.38;;;;;;;-144.85;100.00;61331.59;5061580;28;30525;-84
2023/05/07 06:49:49;;;;;;;21.52;17.48;;;;;;;-144.85;100.00;61331.59;5067996;28;31641;-86
2023/05/07 06:52:19;;;;;;;21.95;17.23;;;;;;;-144.85;100.00;61331.59;5062306;28;31481;-83
2023/05/07 06:54:48;;;;;;;21.00;16.95;;;;;;;-144.85;100.00;61331.59;5076268;28;31218;-85
2023/05/07 06:57:18;;;;;;;23.35;17.65;;;;;;;-144.85;100.00;61331.59;5062570;28;30610;-85
2023/05/07 06:59:45;;;;;;;20.83;16.50;;;;;;;-144.85;100.00;61331.59;5062194;28;31724;-85
2023/05/07 07:02:12;;;;;;;19.95;16.40;;;;;;;-144.85;100.00;61331.59;5089634;28;30926;-85
2023/05/07 07:04:41;;;;;;;21.42;14.98;;;;;;;-144.85;100.00;61331.59;5082751;28;30893;-85
2023/05/07 07:07:10;;;;;;;21.15;16.13;;;;;;;-144.85;100.00;61331.59;5066511;28;32055;-85
2023/05/07 07:09:40;;;;;;;21.13;16.77;;;;;;;-144.85;100.00;61331.59;5062560;28;33137;-85
2023/05/07 07:12:08;;;;;;;21.80;16.30;;;;;;;-144.85;100.00;61331.59;5059707;28;32801;-84
2023/05/07 07:14:38;;;;;;;18.48;15.80;;;;;;;-144.85;100.00;61331.59;5072387;28;32599;-84
2023/05/07 07:17:05;;;;;;;19.02;15.82;;;;;;;-144.85;100.00;61331.59;5034660;28;32683;-82
2023/05/07 07:19:33;;;;;;;20.38;16.30;;;;;;;-144.85;100.00;61331.59;5061370;28;32905;-84
2023/05/07 07:22:03;;;;;;;22.38;16.52;;;;;;;-144.85;100.00;61331.59;5068095;28;33052;-83
2023/05/07 07:24:30;;;;;;;18.92;15.20;;;;;;;-144.85;100.00;61331.59;5044852;28;31042;-84
2023/05/07 07:27:01;;;;;;;19.60;15.38;;;;;;;-144.85;100.00;61331.59;5061009;28;32095;-83
2023/05/07 07:29:29;;;;;;;19.30;15.50;;;;;;;-144.85;100.00;61331.59;5045404;28;33131;-86
2023/05/07 07:31:56;;;;;;;21.67;15.55;;;;;;;-144.85;100.00;61331.59;5044660;28;32533;-83
2023/05/07 07:34:23;;;;;;;18.92;15.20;;;;;;;-144.85;100.00;61331.59;5042571;28;31409;-84
2023/05/07 07:36:51;;;;;;;19.88;15.23;;;;;;;-144.85;100.00;61331.59;5058103;28;31279;-84
2023/05/07 07:39:19;;;;;;;18.75;15.35;;;;;;;-144.85;100.00;61331.59;5046781;28;32956;-85
2023/05/07 07:41:49;;;;;;;19.02;15.32;;;;;;;-144.85;100.00;61331.59;5061686;28;31282;-84
2023/05/07 07:44:18;;;;;;;17.23;14.48;;;;;;;-144.85;100.00;61331.59;5062554;28;32551;-84
2023/05/07 07:46:51;;;;;;;18.65;14.10;;;;;;;-144.85;100.00;61331.59;5045044;28;30766;-82
2023/05/07 07:49:20;;;;;;;16.58;13.85;;;;;;;-144.85;100.00;61331.59;5063159;28;32736;-84
2023/05/07 07:51:47;;;;;;;17.83;13.85;;;;;;;-144.85;100.00;61331.59;5064638;28;33142;-84
2023/05/07 07:54:16;;;;;;;17.17;13.10;;;;;;;-144.85;100.00;61331.59;5045600;28;32667;-84
2023/05/07 07:56:44;;;;;;;18.15;14.00;;;;;;;-144.85;100.00;61331.59;5061615;28;32250;-84
2023/05/07 07:59:17;;;;;;;17.00;14.13;;;;;;;-144.85;100.00;61331.59;5047215;28;33695;-83
2023/05/07 08:01:45;;;;;;;16.88;13.27;;;;;;;-144.85;100.00;61331.59;5045563;28;32119;-84
2023/05/07 08:04:12;;;;;;;18.08;13.82;;;;;;;-144.85;100.00;61331.59;5070271;28;33737;-83
2023/05/07 08:06:42;;;;;;;18.17;13.35;;;;;;;-144.85;100.00;61331.59;5048312;28;31946;-82
2023/05/07 08:09:09;;;;;;;16.48;11.63;;;;;;;-144.85;100.00;61331.59;5046311;28;31612;-83
2023/05/07 08:11:39;;;;;;;16.30;12.32;;;;;;;-144.85;100.00;61331.59;5065075;28;32876;-84
2023/05/07 08:14:07;;;;;;;15.32;13.40;;;;;;;-144.85;100.00;61331.59;5064232;28;33436;-84
2023/05/07 08:16:34;;;;;;;15.40;12.70;;;;;;;-144.85;100.00;61331.59;5045995;28;32983;-83
2023/05/07 08:19:02;;;;;;;16.95;12.93;;;;;;;-144.85;100.00;61331.59;5062517;28;31247;-84
2023/05/07 08:21:30;;;;;;;14.73;11.98;;;;;;;-144.85;100.00;61331.59;5061569;28;31163;-83
2023/05/07 08:24:01;;;;;;;16.38;12.23;;;;;;;-144.85;100.00;61331.59;5066094;28;32354;-83
2023/05/07 08:26:29;;;;;;;16.15;12.93;;;;;;;-144.85;100.00;61331.59;5047682;28;31546;-83
2023/05/07 08:28:56;;;;;;;16.17;11.63;;;;;;;-144.85;100.00;61331.59;5045665;28;33344;-82
2023/05/07 08:31:24;;;;;;;14.35;11.77;;;;;;;-144.85;100.00;61331.59;5062187;28;32716;-83
2023/05/07 08:33:52;;;;;;;14.38;12.05;;;;;;;-144.85;100.00;61331.59;5061096;28;32128;-82
2023/05/07 08:36:20;;;;;;;14.63;12.65;;;;;;;-144.85;100.00;61331.59;5078032;28;30558;-83
2023/05/07 08:38:47;;;;;;;15.73;12.18;;;;;;;-144.85;100.00;61331.59;5060403;28;33212;-82
2023/05/07 08:41:16;;;;;;;15.20;11.82;;;;;;;-144.85;100.00;61331.59;5057037;28;33710;-82
2023/05/07 08:43:48;;;;;;;16.33;11.98;;;;;;;-144.85;100.00;61331.59;5077137;28;32626;-82
2023/05/07 08:46:21;;;;;;;15.73;13.02;;;;;;;-144.85;100.00;61331.59;5046216;28;30842;-81
2023/05/07 08:48:52;;;;;;;14.80;11.95;;;;;;;-144.85;100.00;61331.59;5047777;28;33583;-81
2023/05/07 08:51:21;;;;;;;14.57;12.05;;;;;;;-144.85;100.00;61331.59;5045031;28;34110;-82
2023/05/07 08:53:49;;;;;;;16.02;11.27;;;;;;;-144.85;100.00;61331.59;5048117;28;32808;-81
2023/05/07 08:56:23;;;;;;;16.77;11.35;;;;;;;-144.85;100.00;61331.59;5052116;28;32022;-82
2023/05/07 08:58:56;;;;;;;13.27;11.65;;;;;;;-144.85;100.00;61331.59;5046568;28;31607;-82
2023/05/07 09:01:25;;;;;;;13.45;11.52;;;;;;;-144.85;100.00;61331.59;5061406;28;31198;-82
2023/05/07 09:03:54;;;;;;;13.40;11.32;;;;;;;-144.85;100.00;61331.59;5063555;28;32628;-82
2023/05/07 09:06:23;;;;;;;12.63;11.20;;;;;;;-144.85;100.00;61331.59;5057942;28;31751;-83
2023/05/07 09:08:52;;;;;;;13.55;9.40;;;;;;;-144.85;100.00;61331.59;5059626;28;31635;-81
2023/05/07 09:11:23;;;;;;;13.30;9.20;;;;;;;-144.85;100.00;61331.59;5059731;28;33747;-82
2023/05/07 09:13:59;;;;;;;12.07;9.57;;;;;;;-144.85;100.00;61331.59;5058954;28;32294;-81
2023/05/07 09:16:30;;;;;;;11.43;9.07;;;;;;;-144.85;100.00;61331.59;5077847;28;31926;-82
2023/05/07 09:19:00;;;;;;;11.98;8.73;;;;;;;-144.85;100.00;61331.59;5065822;28;33317;-82
2023/05/07 09:21:27;;;;;;;13.48;9.30;;;;;;;-144.85;100.00;61331.59;5061770;28;32014;-82
2023/05/07 09:23:58;;;;;;;11.80;9.07;;;;;;;-144.85;100.00;61331.59;5063845;28;32086;-82
2023/05/07 09:26:40;;;;;;;12.10;8.25;;;;;;;-144.85;100.00;61331.59;5064312;28;31299;-82
2023/05/07 09:29:11;;;;;;;9.75;8.20;;;;;;;-144.85;100.00;61331.59;5044978;28;36114;-81
2023/05/07 09:31:39;;;;;;;12.10;9.07;;;;;;;-144.85;100.00;61331.59;5066214;28;32240;-81
2023/05/07 09:34:09;;;;;;;13.13;9.50;;;;;;;-144.85;100.00;61331.59;5059703;28;31829;-82
2023/05/07 09:36:40;;;;;;;12.15;8.65;;;;;;;-144.85;100.00;61331.59;5043733;28;31585;-81
2023/05/07 09:39:07;;;;;;;10.25;7.40;;;;;;;-144.85;100.00;61331.59;5060201;28;33528;-82
2023/05/07 09:41:43;;;;;;;10.70;8.07;;;;;;;-144.85;100.00;61331.59;5058449;28;33266;-82
2023/05/07 09:44:16;;;;;;;9.98;7.43;;;;;;;-144.85;100.00;61331.59;5056379;28;31145;-82
2023/05/07 09:46:54;;;;;;;9.65;7.80;;;;;;;-144.85;100.00;61331.59;5062744;28;30927;-82
2023/05/07 09:49:30;;;;;;;11.57;8.00;;;;;;;-144.85;100.00;61331.59;5070910;28;31596;-82
2023/05/07 09:52:09;;;;;;;10.77;8.00;;;;;;;-144.85;100.00;61331.59;5064367;28;31692;-82
2023/05/07 09:54:43;;;;;;;11.93;8.50;;;;;;;-144.85;100.00;61331.59;5072807;28;31239;-82
2023/05/07 09:57:11;;;;;;;10.07;8.13;;;;;;;-144.85;100.00;61331.59;5048462;28;30604;-81
2023/05/07 09:59:43;;;;;;;8.50;7.22;;;;;;;-144.85;100.00;61331.59;5062550;28;31818;-80
2023/05/07 10:02:15;;;;;;;9.77;7.57;;;;;;;-144.85;100.00;61331.59;5048863;28;31620;-81
2023/05/07 10:04:48;;;;;;;10.18;7.50;;;;;;;-144.85;100.00;61331.59;5062132;28;32245;-81
2023/05/07 10:07:18;;;;;;;10.57;7.53;;;;;;;-144.85;100.00;61331.59;5063349;28;32825;-81
2023/05/07 10:09:47;;;;;;;9.57;7.40;;;;;;;-144.85;100.00;61331.59;5061099;28;33318;-81
2023/05/07 10:12:24;;;;;;;10.75;8.55;;;;;;;-144.85;100.00;61331.59;5039502;28;33044;-81
2023/05/07 10:14:52;;;;;;;11.13;8.52;;;;;;;-144.85;100.00;61331.59;5045404;28;31539;-81
2023/05/07 10:17:20;;;;;;;10.95;8.68;;;;;;;-144.85;100.00;61331.59;5058851;28;31966;-81
2023/05/07 10:19:50;;;;;;;8.82;7.30;;;;;;;-144.85;100.00;61331.59;5060899;28;32721;-81
2023/05/07 10:22:19;;;;;;;16.00;7.75;;;;;;;-144.85;100.00;61331.59;5044515;28;33671;-81
2023/05/07 10:24:51;;;;;;;11.60;7.80;;;;;;;-144.85;100.00;61331.59;5044667;28;30822;-82
2023/05/07 10:27:22;;;;;;;10.75;7.93;;;;;;;-144.85;100.00;61331.59;5045389;28;32492;-81
2023/05/07 10:29:57;;;;;;;10.52;7.63;;;;;;;-144.85;100.00;61331.59;5067112;28;33377;-82
2023/05/07 10:32:51;;;;;;;10.85;7.20;;;;;;;-144.85;100.00;61331.59;5071271;28;31366;-81
2023/05/07 10:35:32;;;;;;;10.15;7.75;;;;;;;-144.85;100.00;61331.59;5061176;28;32937;-82
2023/05/07 10:38:03;;;;;;;11.52;8.38;;;;;;;-144.85;100.00;61331.59;5041218;28;33270;-82
2023/05/07 10:40:33;;;;;;;10.88;7.40;;;;;;;-144.85;100.00;61331.59;5045005;28;31506;-81
2023/05/07 10:43:06;;;;;;;9.60;7.47;;;;;;;-144.85;100.00;61331.59;5044997;28;32851;-83
2023/05/07 10:45:41;;;;;;;11.48;7.68;;;;;;;-144.85;100.00;61331.59;5055810;28;32530;-81
2023/05/07 10:48:14;;;;;;;13.23;7.22;;;;;;;-144.85;100.00;61331.59;5060985;28;30923;-82
2023/05/07 10:51:23;;;;;;;9.05;6.97;;;;;;;-144.85;100.00;61331.59;5040856;28;31321;-82
2023/05/07 10:54:10;;;;;;;10.18;7.35;;;;;;;-144.85;100.00;61331.59;5032200;28;31334;-82
2023/05/07 10:56:43;;;;;;;10.30;7.60;;;;;;;-144.85;100.00;61331.59;5074667;28;31026;-82
2023/05/07 10:59:30;;;;;;;9.98;7.85;;;;;;;-144.85;100.00;61331.59;5074003;28;32310;-82
2023/05/07 11:02:07;;;;;;;9.38;7.22;;;;;;;-144.85;100.00;61331.59;5034787;28;34351;-82
2023/05/07 11:04:41;;;;;;;8.60;7.35;;;;;;;-144.85;100.00;61331.59;5060922;28;32644;-82
2023/05/07 11:07:26;;;;;;;8.75;6.63;;;;;;;-144.85;100.00;61331.59;5069965;28;31060;-82